sensor_id;sensor_type;location;lat;lon;timestamp;P1;durP1;ratioP1;P2;durP2;ratioP2
49824;SDS011;35714;55.708;37.478;2022-08-25T00:01:12;29.90;;;8.70;;
49824;SDS011;35714;55.708;37.478;2022-08-25T00:03:39;23.05;;;8.98;;
49824;SDS011;35714;55.708;37.478;2022-08-25T00:06:05;22.20;;;8.93;;
49824;SDS011;35714;55.708;37.478;2022-08-25T00:08:31;19.33;;;8.30;;
49824;SDS011;35714;55.708;37.478;2022-08-25T00:10:59;26.90;;;8.85;;
49824;SDS011;35714;55.708;37.478;2022-08-25T00:13:25;24.55;;;8.38;;
49824;SDS011;35714;55.708;37.478;2022-08-25T00:15:50;23.35;;;8.30;;
49824;SDS011;35714;55.708;37.478;2022-08-25T00:18:16;28.40;;;8.48;;
49824;SDS011;35714;55.708;37.478;2022-08-25T00:20:41;27.40;;;8.93;;
49824;SDS011;35714;55.708;37.478;2022-08-25T00:23:07;23.17;;;8.68;;
49824;SDS011;35714;55.708;37.478;2022-08-25T00:25:32;26.27;;;7.68;;
49824;SDS011;35714;55.708;37.478;2022-08-25T00:27:58;22.00;;;7.82;;
49824;SDS011;35714;55.708;37.478;2022-08-25T00:30:23;18.10;;;8.02;;
49824;SDS011;35714;55.708;37.478;2022-08-25T00:32:49;18.83;;;8.38;;
49824;SDS011;35714;55.708;37.478;2022-08-25T00:35:14;24.95;;;9.05;;
49824;SDS011;35714;55.708;37.478;2022-08-25T00:37:40;23.45;;;8.32;;
49824;SDS011;35714;55.708;37.478;2022-08-25T00:40:06;21.38;;;8.15;;
49824;SDS011;35714;55.708;37.478;2022-08-25T00:42:31;20.42;;;8.13;;
49824;SDS011;35714;55.708;37.478;2022-08-25T00:44:57;25.33;;;8.85;;
49824;SDS011;35714;55.708;37.478;2022-08-25T00:47:23;25.63;;;8.50;;
49824;SDS011;35714;55.708;37.478;2022-08-25T00:49:58;23.08;;;9.52;;
49824;SDS011;35714;55.708;37.478;2022-08-25T00:52:31;42.35;;;9.35;;
49824;SDS011;35714;55.708;37.478;2022-08-25T00:54:59;33.85;;;8.52;;
49824;SDS011;35714;55.708;37.478;2022-08-25T00:57:30;32.03;;;9.32;;
49824;SDS011;35714;55.708;37.478;2022-08-25T00:59:57;36.42;;;9.73;;
49824;SDS011;35714;55.708;37.478;2022-08-25T01:02:23;24.02;;;8.18;;
49824;SDS011;35714;55.708;37.478;2022-08-25T01:04:49;36.92;;;9.73;;
49824;SDS011;35714;55.708;37.478;2022-08-25T01:07:15;27.55;;;9.07;;
49824;SDS011;35714;55.708;37.478;2022-08-25T01:09:41;30.10;;;9.05;;
49824;SDS011;35714;55.708;37.478;2022-08-25T01:12:07;30.05;;;7.68;;
49824;SDS011;35714;55.708;37.478;2022-08-25T01:14:33;25.63;;;8.27;;
49824;SDS011;35714;55.708;37.478;2022-08-25T01:16:58;20.92;;;8.23;;
49824;SDS011;35714;55.708;37.478;2022-08-25T01:19:25;27.10;;;8.80;;
49824;SDS011;35714;55.708;37.478;2022-08-25T01:21:51;33.03;;;9.23;;
49824;SDS011;35714;55.708;37.478;2022-08-25T01:24:25;20.10;;;8.15;;
49824;SDS011;35714;55.708;37.478;2022-08-25T01:26:53;35.00;;;8.95;;
49824;SDS011;35714;55.708;37.478;2022-08-25T01:29:18;26.33;;;7.78;;
49824;SDS011;35714;55.708;37.478;2022-08-25T01:31:53;16.63;;;7.38;;
49824;SDS011;35714;55.708;37.478;2022-08-25T01:34:22;20.27;;;8.00;;
49824;SDS011;35714;55.708;37.478;2022-08-25T01:36:48;23.38;;;7.78;;
49824;SDS011;35714;55.708;37.478;2022-08-25T01:39:13;26.92;;;9.15;;
49824;SDS011;35714;55.708;37.478;2022-08-25T01:44:23;25.33;;;8.35;;
49824;SDS011;35714;55.708;37.478;2022-08-25T01:46:50;25.58;;;8.98;;
49824;SDS011;35714;55.708;37.478;2022-08-25T01:49:15;23.25;;;7.80;;
49824;SDS011;35714;55.708;37.478;2022-08-25T01:51:42;26.10;;;8.88;;
49824;SDS011;35714;55.708;37.478;2022-08-25T01:54:08;36.35;;;8.75;;
49824;SDS011;35714;55.708;37.478;2022-08-25T01:56:33;24.13;;;8.02;;
49824;SDS011;35714;55.708;37.478;2022-08-25T01:58:59;25.58;;;9.15;;
49824;SDS011;35714;55.708;37.478;2022-08-25T02:01:25;26.15;;;8.98;;
49824;SDS011;35714;55.708;37.478;2022-08-25T02:03:51;17.45;;;7.50;;
49824;SDS011;35714;55.708;37.478;2022-08-25T02:06:24;26.77;;;8.15;;
49824;SDS011;35714;55.708;37.478;2022-08-25T02:11:17;19.02;;;6.93;;
49824;SDS011;35714;55.708;37.478;2022-08-25T02:13:43;26.50;;;8.05;;
49824;SDS011;35714;55.708;37.478;2022-08-25T02:16:09;24.33;;;7.72;;
49824;SDS011;35714;55.708;37.478;2022-08-25T02:18:38;19.75;;;7.20;;
49824;SDS011;35714;55.708;37.478;2022-08-25T02:21:04;22.65;;;7.80;;
49824;SDS011;35714;55.708;37.478;2022-08-25T02:23:29;24.05;;;7.22;;
49824;SDS011;35714;55.708;37.478;2022-08-25T02:25:55;21.70;;;7.35;;
49824;SDS011;35714;55.708;37.478;2022-08-25T02:28:21;24.33;;;8.20;;
49824;SDS011;35714;55.708;37.478;2022-08-25T02:30:47;16.23;;;7.68;;
49824;SDS011;35714;55.708;37.478;2022-08-25T02:33:12;25.75;;;7.63;;
49824;SDS011;35714;55.708;37.478;2022-08-25T02:35:38;21.65;;;8.10;;
49824;SDS011;35714;55.708;37.478;2022-08-25T02:38:03;22.42;;;8.05;;
49824;SDS011;35714;55.708;37.478;2022-08-25T02:40:29;24.08;;;8.15;;
49824;SDS011;35714;55.708;37.478;2022-08-25T02:42:55;22.25;;;7.55;;
49824;SDS011;35714;55.708;37.478;2022-08-25T02:45:21;21.05;;;7.68;;
49824;SDS011;35714;55.708;37.478;2022-08-25T02:47:47;21.45;;;8.18;;
49824;SDS011;35714;55.708;37.478;2022-08-25T02:50:12;22.17;;;8.07;;
49824;SDS011;35714;55.708;37.478;2022-08-25T02:52:38;26.45;;;8.57;;
49824;SDS011;35714;55.708;37.478;2022-08-25T02:55:06;23.95;;;8.13;;
49824;SDS011;35714;55.708;37.478;2022-08-25T02:57:32;21.30;;;8.05;;
49824;SDS011;35714;55.708;37.478;2022-08-25T02:59:57;35.20;;;8.68;;
49824;SDS011;35714;55.708;37.478;2022-08-25T03:02:23;31.85;;;8.82;;
49824;SDS011;35714;55.708;37.478;2022-08-25T03:04:49;32.38;;;9.23;;
49824;SDS011;35714;55.708;37.478;2022-08-25T03:07:16;22.00;;;8.07;;
49824;SDS011;35714;55.708;37.478;2022-08-25T03:09:42;25.85;;;7.55;;
49824;SDS011;35714;55.708;37.478;2022-08-25T03:12:08;20.35;;;7.93;;
49824;SDS011;35714;55.708;37.478;2022-08-25T03:14:34;23.75;;;8.40;;
49824;SDS011;35714;55.708;37.478;2022-08-25T03:16:59;31.60;;;8.85;;
49824;SDS011;35714;55.708;37.478;2022-08-25T03:19:24;26.48;;;8.57;;
49824;SDS011;35714;55.708;37.478;2022-08-25T03:21:50;29.13;;;9.15;;
49824;SDS011;35714;55.708;37.478;2022-08-25T03:24:20;31.50;;;8.88;;
49824;SDS011;35714;55.708;37.478;2022-08-25T03:26:45;32.28;;;8.05;;
49824;SDS011;35714;55.708;37.478;2022-08-25T03:29:26;31.35;;;8.40;;
49824;SDS011;35714;55.708;37.478;2022-08-25T03:31:52;29.25;;;8.20;;
49824;SDS011;35714;55.708;37.478;2022-08-25T03:34:22;27.80;;;8.68;;
49824;SDS011;35714;55.708;37.478;2022-08-25T03:36:49;40.33;;;9.05;;
49824;SDS011;35714;55.708;37.478;2022-08-25T03:39:15;35.55;;;9.43;;
49824;SDS011;35714;55.708;37.478;2022-08-25T03:41:41;22.63;;;8.38;;
49824;SDS011;35714;55.708;37.478;2022-08-25T03:44:07;27.77;;;9.40;;
49824;SDS011;35714;55.708;37.478;2022-08-25T03:46:46;23.92;;;8.02;;
49824;SDS011;35714;55.708;37.478;2022-08-25T03:49:13;31.30;;;8.63;;
49824;SDS011;35714;55.708;37.478;2022-08-25T03:51:40;23.02;;;9.00;;
49824;SDS011;35714;55.708;37.478;2022-08-25T03:54:06;24.08;;;8.23;;
49824;SDS011;35714;55.708;37.478;2022-08-25T03:56:32;33.47;;;9.18;;
49824;SDS011;35714;55.708;37.478;2022-08-25T03:58:58;27.08;;;8.32;;
49824;SDS011;35714;55.708;37.478;2022-08-25T04:01:23;18.52;;;7.82;;
49824;SDS011;35714;55.708;37.478;2022-08-25T04:03:50;23.85;;;8.63;;
49824;SDS011;35714;55.708;37.478;2022-08-25T04:06:16;25.25;;;9.85;;
49824;SDS011;35714;55.708;37.478;2022-08-25T04:08:42;20.17;;;8.45;;
49824;SDS011;35714;55.708;37.478;2022-08-25T04:11:09;23.17;;;8.80;;
49824;SDS011;35714;55.708;37.478;2022-08-25T04:13:35;19.25;;;7.90;;
49824;SDS011;35714;55.708;37.478;2022-08-25T04:16:01;22.50;;;8.48;;
49824;SDS011;35714;55.708;37.478;2022-08-25T04:18:27;26.20;;;8.65;;
49824;SDS011;35714;55.708;37.478;2022-08-25T04:21:00;17.05;;;7.82;;
49824;SDS011;35714;55.708;37.478;2022-08-25T04:23:26;21.52;;;9.50;;
49824;SDS011;35714;55.708;37.478;2022-08-25T04:25:51;20.67;;;7.57;;
49824;SDS011;35714;55.708;37.478;2022-08-25T04:28:17;20.27;;;7.90;;
49824;SDS011;35714;55.708;37.478;2022-08-25T04:30:42;27.35;;;8.63;;
49824;SDS011;35714;55.708;37.478;2022-08-25T04:33:08;22.33;;;8.63;;
49824;SDS011;35714;55.708;37.478;2022-08-25T04:35:33;20.40;;;8.73;;
49824;SDS011;35714;55.708;37.478;2022-08-25T04:37:59;21.08;;;8.77;;
49824;SDS011;35714;55.708;37.478;2022-08-25T04:40:24;25.50;;;8.07;;
49824;SDS011;35714;55.708;37.478;2022-08-25T04:42:50;25.70;;;9.40;;
49824;SDS011;35714;55.708;37.478;2022-08-25T04:45:16;23.02;;;9.13;;
49824;SDS011;35714;55.708;37.478;2022-08-25T04:47:41;32.45;;;9.25;;
49824;SDS011;35714;55.708;37.478;2022-08-25T04:50:07;22.95;;;9.23;;
49824;SDS011;35714;55.708;37.478;2022-08-25T04:52:32;25.45;;;8.65;;
49824;SDS011;35714;55.708;37.478;2022-08-25T04:54:58;20.48;;;8.82;;
49824;SDS011;35714;55.708;37.478;2022-08-25T04:57:24;25.10;;;9.10;;
49824;SDS011;35714;55.708;37.478;2022-08-25T04:59:50;26.55;;;8.52;;
49824;SDS011;35714;55.708;37.478;2022-08-25T05:02:15;27.92;;;8.68;;
49824;SDS011;35714;55.708;37.478;2022-08-25T05:04:40;19.63;;;8.07;;
49824;SDS011;35714;55.708;37.478;2022-08-25T05:07:06;25.25;;;8.98;;
49824;SDS011;35714;55.708;37.478;2022-08-25T05:09:32;19.10;;;8.00;;
49824;SDS011;35714;55.708;37.478;2022-08-25T05:11:57;20.77;;;8.43;;
49824;SDS011;35714;55.708;37.478;2022-08-25T05:14:23;21.38;;;7.95;;
49824;SDS011;35714;55.708;37.478;2022-08-25T05:16:48;19.13;;;7.80;;
49824;SDS011;35714;55.708;37.478;2022-08-25T05:19:14;21.98;;;7.72;;
49824;SDS011;35714;55.708;37.478;2022-08-25T05:21:40;21.42;;;7.55;;
49824;SDS011;35714;55.708;37.478;2022-08-25T05:24:05;17.05;;;6.60;;
49824;SDS011;35714;55.708;37.478;2022-08-25T05:26:32;18.10;;;7.28;;
49824;SDS011;35714;55.708;37.478;2022-08-25T05:28:58;17.45;;;7.40;;
49824;SDS011;35714;55.708;37.478;2022-08-25T05:31:24;28.17;;;17.52;;
49824;SDS011;35714;55.708;37.478;2022-08-25T05:33:51;16.73;;;7.28;;
49824;SDS011;35714;55.708;37.478;2022-08-25T05:36:17;12.30;;;5.60;;
49824;SDS011;35714;55.708;37.478;2022-08-25T05:38:44;10.45;;;6.50;;
49824;SDS011;35714;55.708;37.478;2022-08-25T05:41:13;13.50;;;6.13;;
49824;SDS011;35714;55.708;37.478;2022-08-25T05:43:40;15.60;;;6.28;;
49824;SDS011;35714;55.708;37.478;2022-08-25T05:46:06;11.88;;;5.93;;
49824;SDS011;35714;55.708;37.478;2022-08-25T05:48:32;15.88;;;6.68;;
49824;SDS011;35714;55.708;37.478;2022-08-25T05:50:58;14.27;;;6.03;;
49824;SDS011;35714;55.708;37.478;2022-08-25T05:53:25;12.82;;;6.22;;
49824;SDS011;35714;55.708;37.478;2022-08-25T05:55:51;14.90;;;6.88;;
49824;SDS011;35714;55.708;37.478;2022-08-25T05:58:18;10.25;;;5.65;;
49824;SDS011;35714;55.708;37.478;2022-08-25T06:00:44;13.65;;;5.63;;
49824;SDS011;35714;55.708;37.478;2022-08-25T06:03:09;17.30;;;5.88;;
49824;SDS011;35714;55.708;37.478;2022-08-25T06:05:35;18.00;;;6.53;;
49824;SDS011;35714;55.708;37.478;2022-08-25T06:08:01;11.63;;;6.10;;
49824;SDS011;35714;55.708;37.478;2022-08-25T06:10:26;14.65;;;6.55;;
49824;SDS011;35714;55.708;37.478;2022-08-25T06:12:52;17.30;;;7.05;;
49824;SDS011;35714;55.708;37.478;2022-08-25T06:15:19;11.25;;;5.88;;
49824;SDS011;35714;55.708;37.478;2022-08-25T06:17:45;20.55;;;6.90;;
49824;SDS011;35714;55.708;37.478;2022-08-25T06:20:13;14.85;;;6.75;;
49824;SDS011;35714;55.708;37.478;2022-08-25T06:22:39;13.45;;;5.80;;
49824;SDS011;35714;55.708;37.478;2022-08-25T06:25:05;14.40;;;6.70;;
49824;SDS011;35714;55.708;37.478;2022-08-25T06:27:31;11.45;;;6.20;;
49824;SDS011;35714;55.708;37.478;2022-08-25T06:29:57;11.95;;;5.78;;
49824;SDS011;35714;55.708;37.478;2022-08-25T06:32:22;13.40;;;5.90;;
49824;SDS011;35714;55.708;37.478;2022-08-25T06:34:48;9.50;;;5.65;;
49824;SDS011;35714;55.708;37.478;2022-08-25T06:37:13;16.23;;;5.82;;
49824;SDS011;35714;55.708;37.478;2022-08-25T06:39:39;17.83;;;5.65;;
49824;SDS011;35714;55.708;37.478;2022-08-25T06:42:05;12.48;;;5.28;;
49824;SDS011;35714;55.708;37.478;2022-08-25T06:44:30;18.50;;;6.82;;
49824;SDS011;35714;55.708;37.478;2022-08-25T06:46:56;9.65;;;5.20;;
49824;SDS011;35714;55.708;37.478;2022-08-25T06:49:21;11.60;;;4.72;;
49824;SDS011;35714;55.708;37.478;2022-08-25T06:51:47;11.10;;;5.38;;
49824;SDS011;35714;55.708;37.478;2022-08-25T06:54:13;11.07;;;5.00;;
49824;SDS011;35714;55.708;37.478;2022-08-25T06:56:39;11.80;;;5.28;;
49824;SDS011;35714;55.708;37.478;2022-08-25T06:59:05;12.10;;;4.97;;
49824;SDS011;35714;55.708;37.478;2022-08-25T07:01:32;15.45;;;5.97;;
49824;SDS011;35714;55.708;37.478;2022-08-25T07:04:00;10.60;;;7.00;;
49824;SDS011;35714;55.708;37.478;2022-08-25T07:06:27;11.60;;;4.90;;
49824;SDS011;35714;55.708;37.478;2022-08-25T07:08:52;10.07;;;4.57;;
49824;SDS011;35714;55.708;37.478;2022-08-25T07:11:18;11.80;;;5.25;;
49824;SDS011;35714;55.708;37.478;2022-08-25T07:13:45;9.88;;;4.95;;
49824;SDS011;35714;55.708;37.478;2022-08-25T07:16:11;11.60;;;4.57;;
49824;SDS011;35714;55.708;37.478;2022-08-25T07:18:37;9.38;;;4.82;;
49824;SDS011;35714;55.708;37.478;2022-08-25T07:21:02;13.63;;;4.43;;
49824;SDS011;35714;55.708;37.478;2022-08-25T07:23:28;7.50;;;3.97;;
49824;SDS011;35714;55.708;37.478;2022-08-25T07:25:53;13.18;;;4.57;;
49824;SDS011;35714;55.708;37.478;2022-08-25T07:28:19;10.63;;;4.30;;
49824;SDS011;35714;55.708;37.478;2022-08-25T07:30:45;9.00;;;4.20;;
49824;SDS011;35714;55.708;37.478;2022-08-25T07:33:11;7.80;;;4.13;;
49824;SDS011;35714;55.708;37.478;2022-08-25T07:35:37;10.07;;;4.65;;
49824;SDS011;35714;55.708;37.478;2022-08-25T07:38:03;8.45;;;4.28;;
49824;SDS011;35714;55.708;37.478;2022-08-25T07:40:30;9.15;;;3.90;;
49824;SDS011;35714;55.708;37.478;2022-08-25T07:42:57;11.25;;;4.70;;
49824;SDS011;35714;55.708;37.478;2022-08-25T07:45:24;7.03;;;4.10;;
49824;SDS011;35714;55.708;37.478;2022-08-25T07:47:57;8.18;;;3.97;;
49824;SDS011;35714;55.708;37.478;2022-08-25T07:50:24;7.07;;;4.07;;
49824;SDS011;35714;55.708;37.478;2022-08-25T07:52:49;5.10;;;3.58;;
49824;SDS011;35714;55.708;37.478;2022-08-25T07:55:15;7.80;;;4.20;;
49824;SDS011;35714;55.708;37.478;2022-08-25T07:57:41;11.95;;;4.40;;
49824;SDS011;35714;55.708;37.478;2022-08-25T08:00:07;8.32;;;4.38;;
49824;SDS011;35714;55.708;37.478;2022-08-25T08:02:37;9.88;;;4.07;;
49824;SDS011;35714;55.708;37.478;2022-08-25T08:05:03;9.30;;;4.30;;
49824;SDS011;35714;55.708;37.478;2022-08-25T08:07:28;8.63;;;4.90;;
49824;SDS011;35714;55.708;37.478;2022-08-25T08:09:55;8.02;;;3.88;;
49824;SDS011;35714;55.708;37.478;2022-08-25T08:12:21;7.07;;;4.50;;
49824;SDS011;35714;55.708;37.478;2022-08-25T08:14:47;7.60;;;4.30;;
49824;SDS011;35714;55.708;37.478;2022-08-25T08:17:14;8.52;;;4.13;;
49824;SDS011;35714;55.708;37.478;2022-08-25T08:19:40;6.18;;;4.05;;
49824;SDS011;35714;55.708;37.478;2022-08-25T08:22:05;7.45;;;4.30;;
49824;SDS011;35714;55.708;37.478;2022-08-25T08:24:31;6.72;;;4.00;;
49824;SDS011;35714;55.708;37.478;2022-08-25T08:27:03;10.25;;;4.70;;
49824;SDS011;35714;55.708;37.478;2022-08-25T08:29:29;7.88;;;4.57;;
49824;SDS011;35714;55.708;37.478;2022-08-25T08:31:54;6.90;;;4.63;;
49824;SDS011;35714;55.708;37.478;2022-08-25T08:34:19;8.60;;;4.20;;
49824;SDS011;35714;55.708;37.478;2022-08-25T08:36:48;8.57;;;4.15;;
49824;SDS011;35714;55.708;37.478;2022-08-25T08:39:13;9.80;;;4.65;;
49824;SDS011;35714;55.708;37.478;2022-08-25T08:49:33;7.90;;;3.50;;
49824;SDS011;35714;55.708;37.478;2022-08-25T08:52:02;7.30;;;3.67;;
49824;SDS011;35714;55.708;37.478;2022-08-25T08:54:30;8.52;;;3.80;;
49824;SDS011;35714;55.708;37.478;2022-08-25T08:57:02;6.00;;;3.60;;
49824;SDS011;35714;55.708;37.478;2022-08-25T08:59:33;9.70;;;3.95;;
49824;SDS011;35714;55.708;37.478;2022-08-25T09:02:05;6.90;;;3.70;;
49824;SDS011;35714;55.708;37.478;2022-08-25T09:04:41;6.22;;;3.58;;
49824;SDS011;35714;55.708;37.478;2022-08-25T09:07:30;7.18;;;3.63;;
49824;SDS011;35714;55.708;37.478;2022-08-25T09:09:54;6.40;;;3.60;;
49824;SDS011;35714;55.708;37.478;2022-08-25T09:17:59;7.10;;;3.13;;
49824;SDS011;35714;55.708;37.478;2022-08-25T09:27:56;8.73;;;3.10;;
49824;SDS011;35714;55.708;37.478;2022-08-25T09:30:24;8.70;;;3.97;;
49824;SDS011;35714;55.708;37.478;2022-08-25T09:32:52;6.40;;;3.70;;
49824;SDS011;35714;55.708;37.478;2022-08-25T09:35:27;6.78;;;3.38;;
49824;SDS011;35714;55.708;37.478;2022-08-25T09:40:24;6.47;;;3.30;;
49824;SDS011;35714;55.708;37.478;2022-08-25T09:42:52;5.95;;;3.38;;
49824;SDS011;35714;55.708;37.478;2022-08-25T09:48:12;5.80;;;3.05;;
49824;SDS011;35714;55.708;37.478;2022-08-25T09:50:47;5.60;;;3.47;;
49824;SDS011;35714;55.708;37.478;2022-08-25T09:53:13;5.28;;;3.70;;
49824;SDS011;35714;55.708;37.478;2022-08-25T09:55:40;6.85;;;3.20;;
49824;SDS011;35714;55.708;37.478;2022-08-25T09:58:17;4.90;;;3.33;;
49824;SDS011;35714;55.708;37.478;2022-08-25T10:00:43;4.85;;;3.30;;
49824;SDS011;35714;55.708;37.478;2022-08-25T10:08:28;5.32;;;4.13;;
49824;SDS011;35714;55.708;37.478;2022-08-25T10:10:56;5.45;;;3.40;;
49824;SDS011;35714;55.708;37.478;2022-08-25T10:13:30;6.40;;;3.50;;
49824;SDS011;35714;55.708;37.478;2022-08-25T10:21:42;5.32;;;3.35;;
49824;SDS011;35714;55.708;37.478;2022-08-25T10:27:57;7.75;;;3.60;;
49824;SDS011;35714;55.708;37.478;2022-08-25T10:36:19;5.95;;;3.33;;
49824;SDS011;35714;55.708;37.478;2022-08-25T10:38:56;5.47;;;3.65;;
49824;SDS011;35714;55.708;37.478;2022-08-25T10:44:12;5.68;;;3.45;;
49824;SDS011;35714;55.708;37.478;2022-08-25T10:47:11;5.22;;;3.80;;
49824;SDS011;35714;55.708;37.478;2022-08-25T10:49:45;4.68;;;4.00;;
49824;SDS011;35714;55.708;37.478;2022-08-25T10:52:17;6.32;;;3.75;;
49824;SDS011;35714;55.708;37.478;2022-08-25T10:54:52;5.25;;;4.10;;
49824;SDS011;35714;55.708;37.478;2022-08-25T10:57:21;5.53;;;3.75;;
49824;SDS011;35714;55.708;37.478;2022-08-25T11:04:58;7.55;;;4.20;;
49824;SDS011;35714;55.708;37.478;2022-08-25T11:07:27;5.63;;;3.50;;
49824;SDS011;35714;55.708;37.478;2022-08-25T11:09:56;7.03;;;3.85;;
49824;SDS011;35714;55.708;37.478;2022-08-25T11:12:31;6.90;;;3.60;;
49824;SDS011;35714;55.708;37.478;2022-08-25T11:15:00;7.07;;;3.88;;
49824;SDS011;35714;55.708;37.478;2022-08-25T11:17:28;6.57;;;3.47;;
49824;SDS011;35714;55.708;37.478;2022-08-25T11:20:03;5.65;;;4.07;;
49824;SDS011;35714;55.708;37.478;2022-08-25T11:27:31;5.85;;;3.65;;
49824;SDS011;35714;55.708;37.478;2022-08-25T11:30:09;5.55;;;3.70;;
49824;SDS011;35714;55.708;37.478;2022-08-25T11:32:36;6.68;;;3.67;;
49824;SDS011;35714;55.708;37.478;2022-08-25T11:35:03;5.95;;;3.88;;
49824;SDS011;35714;55.708;37.478;2022-08-25T11:37:29;8.05;;;4.47;;
49824;SDS011;35714;55.708;37.478;2022-08-25T11:47:54;9.05;;;4.18;;
49824;SDS011;35714;55.708;37.478;2022-08-25T11:50:28;7.30;;;3.78;;
49824;SDS011;35714;55.708;37.478;2022-08-25T11:52:59;8.07;;;4.70;;
49824;SDS011;35714;55.708;37.478;2022-08-25T11:58:31;9.13;;;4.20;;
49824;SDS011;35714;55.708;37.478;2022-08-25T12:00:57;7.95;;;4.00;;
49824;SDS011;35714;55.708;37.478;2022-08-25T12:06:43;5.70;;;3.88;;
49824;SDS011;35714;55.708;37.478;2022-08-25T12:09:32;7.32;;;4.57;;
49824;SDS011;35714;55.708;37.478;2022-08-25T12:21:48;5.82;;;3.67;;
49824;SDS011;35714;55.708;37.478;2022-08-25T12:24:15;6.38;;;3.90;;
49824;SDS011;35714;55.708;37.478;2022-08-25T12:26:44;8.45;;;3.92;;
49824;SDS011;35714;55.708;37.478;2022-08-25T12:29:11;8.55;;;4.13;;
49824;SDS011;35714;55.708;37.478;2022-08-25T12:34:30;8.65;;;4.03;;
49824;SDS011;35714;55.708;37.478;2022-08-25T12:39:42;5.47;;;3.78;;
49824;SDS011;35714;55.708;37.478;2022-08-25T12:42:17;8.45;;;4.13;;
49824;SDS011;35714;55.708;37.478;2022-08-25T12:44:47;7.68;;;4.30;;
49824;SDS011;35714;55.708;37.478;2022-08-25T12:49:44;6.60;;;4.18;;
49824;SDS011;35714;55.708;37.478;2022-08-25T12:52:17;11.52;;;5.22;;
49824;SDS011;35714;55.708;37.478;2022-08-25T12:54:46;5.32;;;4.28;;
49824;SDS011;35714;55.708;37.478;2022-08-25T12:59:40;6.55;;;4.35;;
49824;SDS011;35714;55.708;37.478;2022-08-25T13:02:16;6.65;;;4.40;;
49824;SDS011;35714;55.708;37.478;2022-08-25T13:05:04;7.30;;;5.22;;
49824;SDS011;35714;55.708;37.478;2022-08-25T13:15:43;5.78;;;3.80;;
49824;SDS011;35714;55.708;37.478;2022-08-25T13:18:22;6.80;;;4.25;;
49824;SDS011;35714;55.708;37.478;2022-08-25T13:21:03;6.43;;;3.92;;
49824;SDS011;35714;55.708;37.478;2022-08-25T13:23:30;8.52;;;3.80;;
49824;SDS011;35714;55.708;37.478;2022-08-25T13:25:58;7.88;;;3.90;;
49824;SDS011;35714;55.708;37.478;2022-08-25T13:28:26;6.88;;;4.05;;
49824;SDS011;35714;55.708;37.478;2022-08-25T13:30:59;6.35;;;4.28;;
49824;SDS011;35714;55.708;37.478;2022-08-25T13:33:25;5.03;;;3.72;;
49824;SDS011;35714;55.708;37.478;2022-08-25T13:35:52;7.38;;;3.90;;
49824;SDS011;35714;55.708;37.478;2022-08-25T13:38:36;7.03;;;4.20;;
49824;SDS011;35714;55.708;37.478;2022-08-25T13:41:03;6.18;;;4.15;;
49824;SDS011;35714;55.708;37.478;2022-08-25T13:43:29;6.45;;;4.50;;
49824;SDS011;35714;55.708;37.478;2022-08-25T13:45:54;6.68;;;4.85;;
49824;SDS011;35714;55.708;37.478;2022-08-25T13:48:37;6.72;;;4.40;;
49824;SDS011;35714;55.708;37.478;2022-08-25T13:51:08;6.78;;;4.40;;
49824;SDS011;35714;55.708;37.478;2022-08-25T13:53:34;7.82;;;4.25;;
49824;SDS011;35714;55.708;37.478;2022-08-25T13:56:00;5.55;;;4.38;;
49824;SDS011;35714;55.708;37.478;2022-08-25T13:58:27;8.93;;;4.93;;
49824;SDS011;35714;55.708;37.478;2022-08-25T14:03:38;8.40;;;3.95;;
49824;SDS011;35714;55.708;37.478;2022-08-25T14:08:37;8.07;;;4.43;;
49824;SDS011;35714;55.708;37.478;2022-08-25T14:13:38;6.40;;;4.07;;
49824;SDS011;35714;55.708;37.478;2022-08-25T14:16:08;6.45;;;4.38;;
49824;SDS011;35714;55.708;37.478;2022-08-25T14:18:34;6.10;;;4.35;;
49824;SDS011;35714;55.708;37.478;2022-08-25T14:21:00;5.97;;;3.63;;
49824;SDS011;35714;55.708;37.478;2022-08-25T14:23:27;8.52;;;4.18;;
49824;SDS011;35714;55.708;37.478;2022-08-25T14:25:54;7.03;;;3.58;;
49824;SDS011;35714;55.708;37.478;2022-08-25T14:28:24;5.22;;;4.07;;
49824;SDS011;35714;55.708;37.478;2022-08-25T14:30:52;5.18;;;4.20;;
49824;SDS011;35714;55.708;37.478;2022-08-25T14:33:20;6.70;;;4.60;;
49824;SDS011;35714;55.708;37.478;2022-08-25T14:35:47;5.30;;;3.85;;
49824;SDS011;35714;55.708;37.478;2022-08-25T14:38:13;7.07;;;3.95;;
49824;SDS011;35714;55.708;37.478;2022-08-25T14:40:39;9.38;;;4.57;;
49824;SDS011;35714;55.708;37.478;2022-08-25T14:43:05;13.40;;;4.47;;
49824;SDS011;35714;55.708;37.478;2022-08-25T14:45:31;8.95;;;4.13;;
49824;SDS011;35714;55.708;37.478;2022-08-25T14:48:02;11.23;;;4.95;;
49824;SDS011;35714;55.708;37.478;2022-08-25T14:50:28;5.93;;;4.30;;
49824;SDS011;35714;55.708;37.478;2022-08-25T14:52:54;7.68;;;4.07;;
49824;SDS011;35714;55.708;37.478;2022-08-25T14:55:19;5.82;;;4.20;;
49824;SDS011;35714;55.708;37.478;2022-08-25T14:57:45;6.18;;;4.20;;
49824;SDS011;35714;55.708;37.478;2022-08-25T15:00:10;6.50;;;4.50;;
49824;SDS011;35714;55.708;37.478;2022-08-25T15:02:38;5.18;;;4.25;;
49824;SDS011;35714;55.708;37.478;2022-08-25T15:05:05;7.55;;;4.00;;
49824;SDS011;35714;55.708;37.478;2022-08-25T15:07:32;7.13;;;4.53;;
49824;SDS011;35714;55.708;37.478;2022-08-25T15:10:17;8.52;;;4.57;;
49824;SDS011;35714;55.708;37.478;2022-08-25T15:12:43;8.07;;;4.10;;
49824;SDS011;35714;55.708;37.478;2022-08-25T15:15:08;7.55;;;4.55;;
49824;SDS011;35714;55.708;37.478;2022-08-25T15:17:35;10.07;;;5.00;;
49824;SDS011;35714;55.708;37.478;2022-08-25T15:20:00;8.50;;;4.47;;
49824;SDS011;35714;55.708;37.478;2022-08-25T15:22:26;6.82;;;4.53;;
49824;SDS011;35714;55.708;37.478;2022-08-25T15:24:51;9.60;;;4.55;;
49824;SDS011;35714;55.708;37.478;2022-08-25T15:27:18;10.48;;;4.45;;
49824;SDS011;35714;55.708;37.478;2022-08-25T15:29:43;11.32;;;4.80;;
49824;SDS011;35714;55.708;37.478;2022-08-25T15:32:09;10.68;;;4.78;;
49824;SDS011;35714;55.708;37.478;2022-08-25T15:34:35;7.68;;;4.68;;
49824;SDS011;35714;55.708;37.478;2022-08-25T15:37:05;9.10;;;4.70;;
49824;SDS011;35714;55.708;37.478;2022-08-25T15:39:32;17.08;;;6.65;;
49824;SDS011;35714;55.708;37.478;2022-08-25T15:41:57;9.27;;;5.05;;
49824;SDS011;35714;55.708;37.478;2022-08-25T15:44:23;9.13;;;4.80;;
49824;SDS011;35714;55.708;37.478;2022-08-25T15:46:50;13.73;;;5.43;;
49824;SDS011;35714;55.708;37.478;2022-08-25T15:49:16;9.02;;;5.45;;
49824;SDS011;35714;55.708;37.478;2022-08-25T15:51:42;12.38;;;5.07;;
49824;SDS011;35714;55.708;37.478;2022-08-25T15:54:07;15.30;;;5.20;;
49824;SDS011;35714;55.708;37.478;2022-08-25T15:56:33;10.18;;;5.40;;
49824;SDS011;35714;55.708;37.478;2022-08-25T15:58:58;9.48;;;4.70;;
49824;SDS011;35714;55.708;37.478;2022-08-25T16:01:27;9.98;;;4.68;;
49824;SDS011;35714;55.708;37.478;2022-08-25T16:03:54;14.10;;;5.50;;
49824;SDS011;35714;55.708;37.478;2022-08-25T16:06:19;14.65;;;5.20;;
49824;SDS011;35714;55.708;37.478;2022-08-25T16:08:45;15.18;;;5.15;;
49824;SDS011;35714;55.708;37.478;2022-08-25T16:11:26;10.75;;;5.07;;
49824;SDS011;35714;55.708;37.478;2022-08-25T16:13:52;22.10;;;5.35;;
49824;SDS011;35714;55.708;37.478;2022-08-25T16:16:19;16.50;;;6.13;;
49824;SDS011;35714;55.708;37.478;2022-08-25T16:18:45;12.43;;;5.20;;
49824;SDS011;35714;55.708;37.478;2022-08-25T16:21:11;13.30;;;5.60;;
49824;SDS011;35714;55.708;37.478;2022-08-25T16:23:38;12.57;;;5.93;;